sensor_id;sensor_type;location;lat;lon;timestamp;pressure;altitude;pressure_sealevel;temperature;humidity
52745;BME280;38637;49.984;20.426;2023-03-04T00:01:05;99382.78;;;0.88;78.52
52745;BME280;38637;49.984;20.426;2023-03-04T00:03:30;99382.38;;;0.91;78.63
52745;BME280;38637;49.984;20.426;2023-03-04T00:05:55;99366.63;;;0.81;78.49
52745;BME280;38637;49.984;20.426;2023-03-04T00:08:20;99377.22;;;0.89;79.01
52745;BME280;38637;49.984;20.426;2023-03-04T00:10:46;99375.16;;;0.91;79.25
52745;BME280;38637;49.984;20.426;2023-03-04T00:13:11;99368.75;;;0.93;78.89
52745;BME280;38637;49.984;20.426;2023-03-04T00:15:37;99362.16;;;0.95;78.78
52745;BME280;38637;49.984;20.426;2023-03-04T00:18:02;99365.03;;;0.94;78.98
52745;BME280;38637;49.984;20.426;2023-03-04T00:20:27;99360.31;;;0.96;79.37
52745;BME280;38637;49.984;20.426;2023-03-04T00:22:53;99350.13;;;0.91;79.00
52745;BME280;38637;49.984;20.426;2023-03-04T00:25:18;99350.56;;;0.95;79.17
52745;BME280;38637;49.984;20.426;2023-03-04T00:27:43;99354.25;;;0.87;79.27
52745;BME280;38637;49.984;20.426;2023-03-04T00:30:09;99337.84;;;0.75;79.65
52745;BME280;38637;49.984;20.426;2023-03-04T00:32:35;99344.88;;;0.76;79.36
52745;BME280;38637;49.984;20.426;2023-03-04T00:35:00;99339.50;;;0.76;79.51
52745;BME280;38637;49.984;20.426;2023-03-04T00:37:25;99333.94;;;0.78;79.72
52745;BME280;38637;49.984;20.426;2023-03-04T00:39:50;99325.66;;;0.79;79.74
52745;BME280;38637;49.984;20.426;2023-03-04T00:42:16;99316.59;;;0.80;79.84
52745;BME280;38637;49.984;20.426;2023-03-04T00:44:41;99315.97;;;0.78;80.06
52745;BME280;38637;49.984;20.426;2023-03-04T00:47:06;99305.84;;;0.80;79.72
52745;BME280;38637;49.984;20.426;2023-03-04T00:49:32;99309.53;;;0.79;79.99
52745;BME280;38637;49.984;20.426;2023-03-04T00:51:57;99300.22;;;0.75;80.13
52745;BME280;38637;49.984;20.426;2023-03-04T00:54:22;99312.84;;;0.75;80.44
52745;BME280;38637;49.984;20.426;2023-03-04T00:56:48;99303.97;;;0.74;80.54
52745;BME280;38637;49.984;20.426;2023-03-04T00:59:13;99298.19;;;0.77;80.68
52745;BME280;38637;49.984;20.426;2023-03-04T01:01:38;99292.19;;;0.82;80.50
52745;BME280;38637;49.984;20.426;2023-03-04T01:04:04;99286.63;;;0.83;80.44
52745;BME280;38637;49.984;20.426;2023-03-04T01:06:29;99281.69;;;0.87;80.23
52745;BME280;38637;49.984;20.426;2023-03-04T01:08:54;99281.28;;;0.90;80.06
52745;BME280;38637;49.984;20.426;2023-03-04T01:11:20;99270.53;;;0.90;79.95
52745;BME280;38637;49.984;20.426;2023-03-04T01:13:45;99260.81;;;0.89;79.97
52745;BME280;38637;49.984;20.426;2023-03-04T01:16:10;99245.25;;;0.78;79.77
52745;BME280;38637;49.984;20.426;2023-03-04T01:18:37;99259.78;;;0.90;79.71
52745;BME280;38637;49.984;20.426;2023-03-04T01:21:02;99263.28;;;0.90;79.90
52745;BME280;38637;49.984;20.426;2023-03-04T01:23:28;99260.81;;;0.89;79.66
52745;BME280;38637;49.984;20.426;2023-03-04T01:25:53;99240.13;;;0.89;79.98
52745;BME280;38637;49.984;20.426;2023-03-04T01:28:19;99239.09;;;0.90;79.70
52745;BME280;38637;49.984;20.426;2023-03-04T01:30:44;99239.25;;;0.82;79.82
52745;BME280;38637;49.984;20.426;2023-03-04T01:33:09;99239.31;;;0.89;79.34
52745;BME280;38637;49.984;20.426;2023-03-04T01:35:35;99224.16;;;0.81;79.47
52745;BME280;38637;49.984;20.426;2023-03-04T01:38:00;99232.66;;;0.85;79.73
52745;BME280;38637;49.984;20.426;2023-03-04T01:40:25;99239.72;;;0.86;79.77
52745;BME280;38637;49.984;20.426;2023-03-04T01:42:51;99232.25;;;0.88;79.34
52745;BME280;38637;49.984;20.426;2023-03-04T01:45:18;99234.34;;;0.86;79.60
52745;BME280;38637;49.984;20.426;2023-03-04T01:47:46;99233.06;;;0.88;79.54
52745;BME280;38637;49.984;20.426;2023-03-04T01:50:19;99233.94;;;0.89;79.46
52745;BME280;38637;49.984;20.426;2023-03-04T01:52:45;99225.88;;;0.89;79.19
52745;BME280;38637;49.984;20.426;2023-03-04T01:55:16;99221.91;;;0.91;79.72
52745;BME280;38637;49.984;20.426;2023-03-04T01:57:41;99209.94;;;0.94;79.53
52745;BME280;38637;49.984;20.426;2023-03-04T02:00:17;99221.50;;;0.95;79.44
52745;BME280;38637;49.984;20.426;2023-03-04T02:02:47;99205.19;;;0.89;79.28
52745;BME280;38637;49.984;20.426;2023-03-04T02:05:14;99200.41;;;0.91;79.57
52745;BME280;38637;49.984;20.426;2023-03-04T02:07:40;99210.59;;;1.03;79.42
52745;BME280;38637;49.984;20.426;2023-03-04T02:10:07;99201.69;;;1.02;78.91
52745;BME280;38637;49.984;20.426;2023-03-04T02:12:33;99203.34;;;1.03;79.30
52745;BME280;38637;49.984;20.426;2023-03-04T02:14:58;99202.09;;;1.06;79.51
52745;BME280;38637;49.984;20.426;2023-03-04T02:17:27;99196.72;;;1.06;79.26
52745;BME280;38637;49.984;20.426;2023-03-04T02:20:17;99195.69;;;1.07;79.24
52745;BME280;38637;49.984;20.426;2023-03-04T02:22:57;99202.34;;;1.11;79.11
52745;BME280;38637;49.984;20.426;2023-03-04T02:25:30;99192.59;;;1.10;79.21
52745;BME280;38637;49.984;20.426;2023-03-04T02:27:57;99192.59;;;1.10;79.23
52745;BME280;38637;49.984;20.426;2023-03-04T02:30:23;99191.56;;;1.11;78.87
52745;BME280;38637;49.984;20.426;2023-03-04T02:32:50;99185.38;;;1.10;79.27
52745;BME280;38637;49.984;20.426;2023-03-04T02:35:17;99179.78;;;1.12;79.23
52745;BME280;38637;49.984;20.426;2023-03-04T02:37:43;99175.22;;;1.12;79.38
52745;BME280;38637;49.984;20.426;2023-03-04T02:40:17;99182.28;;;1.13;79.09
52745;BME280;38637;49.984;20.426;2023-03-04T02:42:46;99180.59;;;1.12;79.34
52745;BME280;38637;49.984;20.426;2023-03-04T02:45:47;99173.16;;;1.14;79.52
52745;BME280;38637;49.984;20.426;2023-03-04T02:48:17;99182.88;;;1.15;79.20
52745;BME280;38637;49.984;20.426;2023-03-04T02:50:47;99172.75;;;1.18;79.11
52745;BME280;38637;49.984;20.426;2023-03-04T02:53:12;99170.06;;;1.11;79.47
52745;BME280;38637;49.984;20.426;2023-03-04T02:55:39;99174.63;;;1.10;79.37
52745;BME280;38637;49.984;20.426;2023-03-04T02:58:06;99150.84;;;1.14;79.31
52745;BME280;38637;49.984;20.426;2023-03-04T03:00:32;99159.31;;;1.11;79.76
52745;BME280;38637;49.984;20.426;2023-03-04T03:02:57;99155.38;;;1.13;79.74
52745;BME280;38637;49.984;20.426;2023-03-04T03:05:25;99153.53;;;1.14;79.68
52745;BME280;38637;49.984;20.426;2023-03-04T03:07:51;99146.28;;;1.14;79.50
52745;BME280;38637;49.984;20.426;2023-03-04T03:10:16;99154.97;;;1.17;79.27
52745;BME280;38637;49.984;20.426;2023-03-04T03:12:42;99148.13;;;1.14;79.18
52745;BME280;38637;49.984;20.426;2023-03-04T03:15:07;99133.88;;;1.13;79.57
52745;BME280;38637;49.984;20.426;2023-03-04T03:17:33;99141.94;;;1.13;79.47
52745;BME280;38637;49.984;20.426;2023-03-04T03:19:58;99137.56;;;1.12;79.26
52745;BME280;38637;49.984;20.426;2023-03-04T03:22:23;99146.69;;;1.11;79.22
52745;BME280;38637;49.984;20.426;2023-03-04T03:24:49;99135.72;;;1.13;79.29
52745;BME280;38637;49.984;20.426;2023-03-04T03:27:14;99136.56;;;1.13;79.26
52745;BME280;38637;49.984;20.426;2023-03-04T03:29:39;99132.19;;;1.12;79.48
52745;BME280;38637;49.984;20.426;2023-03-04T03:32:05;99128.50;;;1.13;79.56
52745;BME280;38637;49.984;20.426;2023-03-04T03:34:30;99116.28;;;1.11;79.25
52745;BME280;38637;49.984;20.426;2023-03-04T03:36:55;99112.97;;;1.09;79.32
52745;BME280;38637;49.984;20.426;2023-03-04T03:39:20;99108.41;;;1.09;79.83
52745;BME280;38637;49.984;20.426;2023-03-04T03:41:46;99110.69;;;1.12;79.49
52745;BME280;38637;49.984;20.426;2023-03-04T03:44:11;99121.66;;;1.11;79.23
52745;BME280;38637;49.984;20.426;2023-03-04T03:46:37;99125.38;;;1.10;79.55
52745;BME280;38637;49.984;20.426;2023-03-04T03:49:02;99119.78;;;1.11;78.99
52745;BME280;38637;49.984;20.426;2023-03-04T03:51:27;99119.56;;;1.13;79.30
52745;BME280;38637;49.984;20.426;2023-03-04T03:53:53;99118.56;;;1.14;79.33
52745;BME280;38637;49.984;20.426;2023-03-04T03:56:18;99107.81;;;1.14;79.02
52745;BME280;38637;49.984;20.426;2023-03-04T03:58:43;99111.50;;;1.13;78.88
52745;BME280;38637;49.984;20.426;2023-03-04T04:01:09;99102.22;;;1.09;79.38
52745;BME280;38637;49.984;20.426;2023-03-04T04:03:34;99111.91;;;1.10;79.40
52745;BME280;38637;49.984;20.426;2023-03-04T04:06:00;99112.78;;;1.10;79.47
52745;BME280;38637;49.984;20.426;2023-03-04T04:08:25;99102.00;;;1.04;79.05
52745;BME280;38637;49.984;20.426;2023-03-04T04:10:51;99109.66;;;1.07;79.17
52745;BME280;38637;49.984;20.426;2023-03-04T04:13:16;99115.66;;;1.09;79.20
52745;BME280;38637;49.984;20.426;2023-03-04T04:15:41;99113.38;;;1.12;79.27
52745;BME280;38637;49.984;20.426;2023-03-04T04:18:07;99106.34;;;1.11;79.15
52745;BME280;38637;49.984;20.426;2023-03-04T04:20:33;99103.66;;;1.05;78.91
52745;BME280;38637;49.984;20.426;2023-03-04T04:22:59;99104.09;;;1.02;79.06
52745;BME280;38637;49.984;20.426;2023-03-04T04:25:24;99109.03;;;0.98;79.16
52745;BME280;38637;49.984;20.426;2023-03-04T04:27:50;99091.47;;;0.96;79.59
52745;BME280;38637;49.984;20.426;2023-03-04T04:30:15;99084.00;;;0.91;79.67
52745;BME280;38637;49.984;20.426;2023-03-04T04:32:41;99095.81;;;0.90;79.46
52745;BME280;38637;49.984;20.426;2023-03-04T04:35:06;99092.47;;;0.81;80.10
52745;BME280;38637;49.984;20.426;2023-03-04T04:37:32;99098.06;;;0.80;79.91
52745;BME280;38637;49.984;20.426;2023-03-04T04:39:57;99096.00;;;0.88;80.00
52745;BME280;38637;49.984;20.426;2023-03-04T04:42:22;99095.56;;;0.91;80.21
52745;BME280;38637;49.984;20.426;2023-03-04T04:44:48;99096.22;;;0.94;79.61
52745;BME280;38637;49.984;20.426;2023-03-04T04:47:13;99096.63;;;0.90;79.88
52745;BME280;38637;49.984;20.426;2023-03-04T04:49:39;99094.56;;;0.93;80.01
52745;BME280;38637;49.984;20.426;2023-03-04T04:52:04;99085.47;;;0.94;79.44
52745;BME280;38637;49.984;20.426;2023-03-04T04:54:30;99083.41;;;0.96;79.68
52745;BME280;38637;49.984;20.426;2023-03-04T04:56:55;99088.56;;;0.90;79.35
52745;BME280;38637;49.984;20.426;2023-03-04T04:59:20;99074.50;;;0.82;79.52
52745;BME280;38637;49.984;20.426;2023-03-04T05:01:46;99075.94;;;0.84;79.94
52745;BME280;38637;49.984;20.426;2023-03-04T05:04:11;99084.00;;;0.84;79.98
52745;BME280;38637;49.984;20.426;2023-03-04T05:06:36;99075.94;;;0.84;80.06
52745;BME280;38637;49.984;20.426;2023-03-04T05:09:02;99073.66;;;0.88;79.73
52745;BME280;38637;49.984;20.426;2023-03-04T05:11:28;99073.25;;;0.84;79.79
52745;BME280;38637;49.984;20.426;2023-03-04T05:13:53;99070.16;;;0.87;80.06
52745;BME280;38637;49.984;20.426;2023-03-04T05:16:19;99080.31;;;0.92;79.92
52745;BME280;38637;49.984;20.426;2023-03-04T05:18:44;99073.06;;;0.93;79.93
52745;BME280;38637;49.984;20.426;2023-03-04T05:21:10;99077.38;;;0.94;80.07
52745;BME280;38637;49.984;20.426;2023-03-04T05:23:37;99074.50;;;0.95;79.94
52745;BME280;38637;49.984;20.426;2023-03-04T05:26:04;99070.56;;;0.98;79.42
52745;BME280;38637;49.984;20.426;2023-03-04T05:28:29;99066.03;;;0.98;79.76
52745;BME280;38637;49.984;20.426;2023-03-04T05:30:54;99072.00;;;1.00;79.43
52745;BME280;38637;49.984;20.426;2023-03-04T05:33:20;99066.22;;;0.97;79.66
52745;BME280;38637;49.984;20.426;2023-03-04T05:35:46;99051.16;;;0.89;79.44
52745;BME280;38637;49.984;20.426;2023-03-04T05:38:14;99068.91;;;1.03;79.38
52745;BME280;38637;49.984;20.426;2023-03-04T05:40:40;99067.66;;;1.06;79.48
52745;BME280;38637;49.984;20.426;2023-03-04T05:43:06;99056.28;;;1.04;79.72
52745;BME280;38637;49.984;20.426;2023-03-04T05:45:32;99057.94;;;1.11;79.52
52745;BME280;38637;49.984;20.426;2023-03-04T05:47:57;99056.91;;;1.12;79.31
52745;BME280;38637;49.984;20.426;2023-03-04T05:50:23;99048.25;;;1.10;79.50
52745;BME280;38637;49.984;20.426;2023-03-04T05:52:49;99053.59;;;1.24;78.98
52745;BME280;38637;49.984;20.426;2023-03-04T05:55:15;99064.56;;;1.29;78.71
52745;BME280;38637;49.984;20.426;2023-03-04T05:57:41;99048.22;;;1.24;78.89
52745;BME280;38637;49.984;20.426;2023-03-04T06:00:07;99063.72;;;1.35;78.75
52745;BME280;38637;49.984;20.426;2023-03-04T06:02:37;99045.72;;;1.35;78.44
52745;BME280;38637;49.984;20.426;2023-03-04T06:05:03;99056.66;;;1.41;78.48
52745;BME280;38637;49.984;20.426;2023-03-04T06:07:28;99058.75;;;1.38;78.26
52745;BME280;38637;49.984;20.426;2023-03-04T06:09:53;99054.59;;;1.43;78.27
52745;BME280;38637;49.984;20.426;2023-03-04T06:12:19;99053.53;;;1.44;78.00
52745;BME280;38637;49.984;20.426;2023-03-04T06:14:44;99058.31;;;1.48;78.25
52745;BME280;38637;49.984;20.426;2023-03-04T06:17:10;99051.25;;;1.54;78.03
52745;BME280;38637;49.984;20.426;2023-03-04T06:19:35;99047.31;;;1.50;77.09
52745;BME280;38637;49.984;20.426;2023-03-04T06:22:02;99050.88;;;1.50;77.56
52745;BME280;38637;49.984;20.426;2023-03-04T06:24:28;99047.31;;;1.50;77.62
52745;BME280;38637;49.984;20.426;2023-03-04T06:26:53;99057.47;;;1.54;77.41
52745;BME280;38637;49.984;20.426;2023-03-04T06:29:18;99047.75;;;1.53;77.43
52745;BME280;38637;49.984;20.426;2023-03-04T06:31:44;99041.72;;;1.58;77.81
52745;BME280;38637;49.984;20.426;2023-03-04T06:34:09;99039.47;;;1.48;77.59
52745;BME280;38637;49.984;20.426;2023-03-04T06:36:35;99050.63;;;1.52;77.30
52745;BME280;38637;49.984;20.426;2023-03-04T06:39:04;99040.09;;;1.50;77.67
52745;BME280;38637;49.984;20.426;2023-03-04T06:41:30;99043.78;;;1.56;77.24
52745;BME280;38637;49.984;20.426;2023-03-04T06:43:56;99042.34;;;1.60;77.10
52745;BME280;38637;49.984;20.426;2023-03-04T06:46:21;99046.66;;;1.68;77.26
52745;BME280;38637;49.984;20.426;2023-03-04T06:48:47;99049.16;;;1.69;77.04
52745;BME280;38637;49.984;20.426;2023-03-04T06:51:12;99048.72;;;1.72;76.72
52745;BME280;38637;49.984;20.426;2023-03-04T06:53:39;99055.56;;;1.75;76.29
52745;BME280;38637;49.984;20.426;2023-03-04T06:56:05;99038.59;;;1.61;76.56
52745;BME280;38637;49.984;20.426;2023-03-04T06:58:30;99038.81;;;1.66;76.77
52745;BME280;38637;49.984;20.426;2023-03-04T07:00:56;99048.47;;;1.80;76.75
52745;BME280;38637;49.984;20.426;2023-03-04T07:03:21;99042.22;;;1.87;76.25
52745;BME280;38637;49.984;20.426;2023-03-04T07:05:47;99042.84;;;1.89;76.12
52745;BME280;38637;49.984;20.426;2023-03-04T07:08:12;99050.78;;;1.70;75.55
52745;BME280;38637;49.984;20.426;2023-03-04T07:10:38;99057.00;;;1.71;76.75
52745;BME280;38637;49.984;20.426;2023-03-04T07:13:03;99049.31;;;1.81;76.29
52745;BME280;38637;49.984;20.426;2023-03-04T07:15:29;99037.03;;;1.92;75.27
52745;BME280;38637;49.984;20.426;2023-03-04T07:17:54;99055.66;;;2.00;75.23
52745;BME280;38637;49.984;20.426;2023-03-04T07:20:20;99058.38;;;1.87;75.71
52745;BME280;38637;49.984;20.426;2023-03-04T07:22:46;99068.34;;;1.79;75.80
52745;BME280;38637;49.984;20.426;2023-03-04T07:25:11;99074.13;;;1.83;76.11
52745;BME280;38637;49.984;20.426;2023-03-04T07:27:36;99065.38;;;1.36;77.18
52745;BME280;38637;49.984;20.426;2023-03-04T07:30:04;99073.06;;;1.06;78.96
52745;BME280;38637;49.984;20.426;2023-03-04T07:32:29;99076.78;;;1.11;79.15
52745;BME280;38637;49.984;20.426;2023-03-04T07:34:55;99087.53;;;1.18;78.67
52745;BME280;38637;49.984;20.426;2023-03-04T07:37:20;99088.97;;;1.27;78.39
52745;BME280;38637;49.984;20.426;2023-03-04T07:39:45;99068.06;;;1.16;78.27
52745;BME280;38637;49.984;20.426;2023-03-04T07:42:11;99091.25;;;0.84;80.03
52745;BME280;38637;49.984;20.426;2023-03-04T07:44:36;99087.31;;;0.80;80.24
52745;BME280;38637;49.984;20.426;2023-03-04T07:47:01;99071.59;;;0.83;79.59
52745;BME280;38637;49.984;20.426;2023-03-04T07:49:27;99085.03;;;0.97;79.04
52745;BME280;38637;49.984;20.426;2023-03-04T07:51:52;99084.63;;;1.13;78.48
52745;BME280;38637;49.984;20.426;2023-03-04T07:54:17;99076.13;;;1.16;78.25
52745;BME280;38637;49.984;20.426;2023-03-04T07:56:44;99094.56;;;1.26;77.46
52745;BME280;38637;49.984;20.426;2023-03-04T07:59:09;99104.69;;;1.17;77.12
52745;BME280;38637;49.984;20.426;2023-03-04T08:01:36;99098.25;;;0.91;78.55
52745;BME280;38637;49.984;20.426;2023-03-04T08:04:02;99091.47;;;1.02;77.96
52745;BME280;38637;49.984;20.426;2023-03-04T08:06:28;99097.66;;;1.03;77.72
52745;BME280;38637;49.984;20.426;2023-03-04T08:08:59;99122.50;;;1.05;77.76
52745;BME280;38637;49.984;20.426;2023-03-04T08:11:26;99106.97;;;0.80;78.44
52745;BME280;38637;49.984;20.426;2023-03-04T08:13:52;99116.06;;;0.99;77.87
52745;BME280;38637;49.984;20.426;2023-03-04T08:16:19;99117.53;;;1.15;77.21
52745;BME280;38637;49.984;20.426;2023-03-04T08:18:47;99112.97;;;1.29;77.16
52745;BME280;38637;49.984;20.426;2023-03-04T08:21:14;99101.38;;;1.08;77.34
52745;BME280;38637;49.984;20.426;2023-03-04T08:23:40;99103.00;;;1.43;76.16
52745;BME280;38637;49.984;20.426;2023-03-04T08:26:26;99092.81;;;1.71;74.77
52745;BME280;38637;49.984;20.426;2023-03-04T08:28:53;99091.97;;;1.84;73.84
52745;BME280;38637;49.984;20.426;2023-03-04T08:31:20;99110.59;;;1.86;72.93
52745;BME280;38637;49.984;20.426;2023-03-04T08:33:45;99098.97;;;1.92;72.46
52745;BME280;38637;49.984;20.426;2023-03-04T08:36:12;99109.28;;;2.01;72.23
52745;BME280;38637;49.984;20.426;2023-03-04T08:38:37;99093.94;;;2.09;71.36
52745;BME280;38637;49.984;20.426;2023-03-04T08:41:03;99109.69;;;2.12;71.58
52745;BME280;38637;49.984;20.426;2023-03-04T08:43:29;99096.63;;;2.09;71.80
52745;BME280;38637;49.984;20.426;2023-03-04T08:45:55;99116.06;;;2.17;71.45
52745;BME280;38637;49.984;20.426;2023-03-04T08:48:21;99110.94;;;2.09;71.54
52745;BME280;38637;49.984;20.426;2023-03-04T08:50:47;99118.38;;;2.07;71.67
52745;BME280;38637;49.984;20.426;2023-03-04T08:53:13;99109.28;;;2.01;72.24
52745;BME280;38637;49.984;20.426;2023-03-04T08:55:40;99115.34;;;1.90;72.70
52745;BME280;38637;49.984;20.426;2023-03-04T08:58:06;99128.63;;;1.78;73.30
52745;BME280;38637;49.984;20.426;2023-03-04T09:00:32;99116.66;;;1.61;74.28
52745;BME280;38637;49.984;20.426;2023-03-04T09:02:58;99115.41;;;1.44;75.38
52745;BME280;38637;49.984;20.426;2023-03-04T09:05:23;99119.75;;;1.58;75.30
52745;BME280;38637;49.984;20.426;2023-03-04T09:07:48;99122.25;;;1.66;75.24
52745;BME280;38637;49.984;20.426;2023-03-04T09:10:14;99127.19;;;1.76;74.76
52745;BME280;38637;49.984;20.426;2023-03-04T09:12:39;99137.97;;;1.69;75.51
52745;BME280;38637;49.984;20.426;2023-03-04T09:15:05;99131.53;;;1.70;75.26
52745;BME280;38637;49.984;20.426;2023-03-04T09:17:32;99125.13;;;1.58;75.06
52745;BME280;38637;49.984;20.426;2023-03-04T09:19:57;99137.75;;;1.64;75.50
52745;BME280;38637;49.984;20.426;2023-03-04T09:22:23;99131.56;;;1.64;75.37
52745;BME280;38637;49.984;20.426;2023-03-04T09:24:48;99128.84;;;1.70;75.25
52745;BME280;38637;49.984;20.426;2023-03-04T09:27:14;99136.31;;;1.61;75.42
52745;BME280;38637;49.984;20.426;2023-03-04T09:29:39;99124.69;;;1.68;75.00
52745;BME280;38637;49.984;20.426;2023-03-04T09:32:04;99115.81;;;1.67;74.86
52745;BME280;38637;49.984;20.426;2023-03-04T09:34:30;99117.03;;;1.84;74.16
52745;BME280;38637;49.984;20.426;2023-03-04T09:36:55;99118.88;;;1.84;73.70
52745;BME280;38637;49.984;20.426;2023-03-04T09:39:21;99110.56;;;1.92;73.92
52745;BME280;38637;49.984;20.426;2023-03-04T09:41:48;99114.66;;;2.01;73.73
52745;BME280;38637;49.984;20.426;2023-03-04T09:44:33;99116.28;;;2.16;73.43
52745;BME280;38637;49.984;20.426;2023-03-04T09:47:03;99104.66;;;2.22;72.65
52745;BME280;38637;49.984;20.426;2023-03-04T09:49:30;99110.03;;;2.22;71.70
52745;BME280;38637;49.984;20.426;2023-03-04T09:52:23;99099.66;;;2.25;71.30
52745;BME280;38637;49.984;20.426;2023-03-04T09:55:14;99102.38;;;2.19;70.65
52745;BME280;38637;49.984;20.426;2023-03-04T09:57:59;99109.22;;;2.21;70.73
52745;BME280;38637;49.984;20.426;2023-03-04T10:00:36;99108.78;;;2.24;70.99
52745;BME280;38637;49.984;20.426;2023-03-04T10:05:57;99107.31;;;2.28;70.62
52745;BME280;38637;49.984;20.426;2023-03-04T10:11:00;99100.75;;;2.18;70.19
52745;BME280;38637;49.984;20.426;2023-03-04T10:13:47;99094.41;;;1.92;71.16
52745;BME280;38637;49.984;20.426;2023-03-04T10:16:19;99087.75;;;2.01;71.00
52745;BME280;38637;49.984;20.426;2023-03-04T10:21:47;99094.56;;;2.04;70.82
52745;BME280;38637;49.984;20.426;2023-03-04T10:24:16;99099.59;;;1.94;70.81
52745;BME280;38637;49.984;20.426;2023-03-04T10:26:48;99092.75;;;1.91;71.14
52745;BME280;38637;49.984;20.426;2023-03-04T10:29:18;99092.97;;;1.83;71.50
52745;BME280;38637;49.984;20.426;2023-03-04T10:31:44;99095.88;;;1.88;71.24
52745;BME280;38637;49.984;20.426;2023-03-04T10:34:14;99096.06;;;1.87;71.20
52745;BME280;38637;49.984;20.426;2023-03-04T10:36:57;99091.72;;;1.92;71.19
52745;BME280;38637;49.984;20.426;2023-03-04T10:39:29;99085.94;;;1.89;71.12
52745;BME280;38637;49.984;20.426;2023-03-04T10:45:00;99080.09;;;1.98;71.28
52745;BME280;38637;49.984;20.426;2023-03-04T10:47:30;99082.19;;;1.96;71.12
52745;BME280;38637;49.984;20.426;2023-03-04T10:49:59;99067.28;;;1.94;71.08
52745;BME280;38637;49.984;20.426;2023-03-04T10:52:28;99077.81;;;1.95;71.16
52745;BME280;38637;49.984;20.426;2023-03-04T10:54:56;99069.13;;;2.00;70.74
52745;BME280;38637;49.984;20.426;2023-03-04T10:57:37;99069.56;;;1.97;71.09
52745;BME280;38637;49.984;20.426;2023-03-04T11:02:41;99063.78;;;1.93;71.73
52745;BME280;38637;49.984;20.426;2023-03-04T11:13:12;99057.53;;;1.99;71.87
52745;BME280;38637;49.984;20.426;2023-03-04T11:16:02;99057.09;;;2.02;71.42
52745;BME280;38637;49.984;20.426;2023-03-04T11:18:44;99047.59;;;2.00;71.36
52745;BME280;38637;49.984;20.426;2023-03-04T11:21:18;99056.88;;;2.04;71.87
52745;BME280;38637;49.984;20.426;2023-03-04T11:23:57;99045.47;;;2.02;71.92
52745;BME280;38637;49.984;20.426;2023-03-04T11:26:34;99056.09;;;1.97;72.08
52745;BME280;38637;49.984;20.426;2023-03-04T11:29:15;99047.75;;;2.05;72.22
52745;BME280;38637;49.984;20.426;2023-03-04T11:37:25;99044.56;;;2.21;71.46
52745;BME280;38637;49.984;20.426;2023-03-04T11:39:57;99030.88;;;2.23;71.66
52745;BME280;38637;49.984;20.426;2023-03-04T11:42:46;99030.00;;;2.29;71.60
52745;BME280;38637;49.984;20.426;2023-03-04T11:45:15;99031.00;;;2.35;71.60
52745;BME280;38637;49.984;20.426;2023-03-04T11:50:31;99016.91;;;2.39;71.54
52745;BME280;38637;49.984;20.426;2023-03-04T11:53:27;99016.47;;;2.42;70.85
52745;BME280;38637;49.984;20.426;2023-03-04T11:56:15;99016.63;;;2.47;71.03
52745;BME280;38637;49.984;20.426;2023-03-04T12:09:41;98998.19;;;2.44;71.28
52745;BME280;38637;49.984;20.426;2023-03-04T12:17:59;98993.00;;;2.74;70.36
52745;BME280;38637;49.984;20.426;2023-03-04T12:26:07;98974.50;;;3.03;70.15
52745;BME280;38637;49.984;20.426;2023-03-04T12:34:42;98985.25;;;2.85;69.23
52745;BME280;38637;49.984;20.426;2023-03-04T12:37:24;98987.53;;;2.81;70.06
52745;BME280;38637;49.984;20.426;2023-03-04T12:40:07;98984.47;;;2.78;70.05
52745;BME280;38637;49.984;20.426;2023-03-04T12:42:59;98986.16;;;2.72;69.65
52745;BME280;38637;49.984;20.426;2023-03-04T12:45:38;98998.25;;;2.69;69.73
52745;BME280;38637;49.984;20.426;2023-03-04T12:54:04;98990.59;;;2.66;70.20
52745;BME280;38637;49.984;20.426;2023-03-04T12:56:36;98987.91;;;2.66;70.63
52745;BME280;38637;49.984;20.426;2023-03-04T12:59:02;98982.72;;;2.65;70.73
52745;BME280;38637;49.984;20.426;2023-03-04T13:01:37;98982.72;;;2.65;70.47
52745;BME280;38637;49.984;20.426;2023-03-04T13:04:29;98982.50;;;2.66;71.04
52745;BME280;38637;49.984;20.426;2023-03-04T13:09:35;98976.44;;;2.71;72.25
52745;BME280;38637;49.984;20.426;2023-03-04T13:12:21;98968.34;;;2.71;71.38
52745;BME280;38637;49.984;20.426;2023-03-04T13:20:33;98967.28;;;2.79;71.23
52745;BME280;38637;49.984;20.426;2023-03-04T13:43:43;98939.81;;;3.07;71.20
52745;BME280;38637;49.984;20.426;2023-03-04T13:51:26;98940.25;;;3.04;71.15
52745;BME280;38637;49.984;20.426;2023-03-04T13:57:19;98936.75;;;3.03;71.21
52745;BME280;38637;49.984;20.426;2023-03-04T13:59:25;98930.28;;;3.04;71.20
52745;BME280;38637;49.984;20.426;2023-03-04T14:01:56;98931.94;;;3.05;71.65
52745;BME280;38637;49.984;20.426;2023-03-04T14:04:27;98933.59;;;3.06;70.97
52745;BME280;38637;49.984;20.426;2023-03-04T14:06:54;98928.34;;;3.11;71.07
52745;BME280;38637;49.984;20.426;2023-03-04T14:09:30;98930.59;;;3.14;71.14
52745;BME280;38637;49.984;20.426;2023-03-04T14:12:13;98921.84;;;3.19;71.34
52745;BME280;38637;49.984;20.426;2023-03-04T14:14:51;98917.53;;;3.11;71.28
52745;BME280;38637;49.984;20.426;2023-03-04T14:17:20;98917.72;;;3.16;71.35
52745;BME280;38637;49.984;20.426;2023-03-04T14:19:47;98919.22;;;3.12;71.29
52745;BME280;38637;49.984;20.426;2023-03-04T14:22:27;98924.97;;;3.16;71.01
52745;BME280;38637;49.984;20.426;2023-03-04T14:25:00;98927.88;;;3.14;71.68
52745;BME280;38637;49.984;20.426;2023-03-04T14:27:27;98917.47;;;3.18;71.32
52745;BME280;38637;49.984;20.426;2023-03-04T14:29:58;98915.22;;;3.15;70.60
52745;BME280;38637;49.984;20.426;2023-03-04T14:32:25;98911.72;;;3.14;71.29
52745;BME280;38637;49.984;20.426;2023-03-04T14:34:56;98913.41;;;3.09;71.12
52745;BME280;38637;49.984;20.426;2023-03-04T14:37:25;98931.03;;;3.11;71.03
52745;BME280;38637;49.984;20.426;2023-03-04T14:39:55;98921.91;;;3.12;71.96
52745;BME280;38637;49.984;20.426;2023-03-04T14:42:24;98926.31;;;3.07;71.64
52745;BME280;38637;49.984;20.426;2023-03-04T14:44:55;98921.38;;;3.04;71.75
52745;BME280;38637;49.984;20.426;2023-03-04T14:47:34;98927.59;;;3.04;72.13